sensor_id;sensor_type;location;lat;lon;timestamp;temperature;humidity
20481;DHT22;10399;50.754;3.366;2023-12-04T00:01:49;4.20;99.90
20481;DHT22;10399;50.754;3.366;2023-12-04T00:04:17;4.20;99.90
20481;DHT22;10399;50.754;3.366;2023-12-04T00:06:44;4.30;99.90
20481;DHT22;10399;50.754;3.366;2023-12-04T00:09:12;4.40;99.90
20481;DHT22;10399;50.754;3.366;2023-12-04T00:11:39;4.50;99.90
20481;DHT22;10399;50.754;3.366;2023-12-04T00:14:06;4.60;99.90
20481;DHT22;10399;50.754;3.366;2023-12-04T00:16:36;4.40;99.90
20481;DHT22;10399;50.754;3.366;2023-12-04T00:19:03;4.50;99.90
20481;DHT22;10399;50.754;3.366;2023-12-04T00:21:30;4.40;99.90
20481;DHT22;10399;50.754;3.366;2023-12-04T00:23:57;4.50;99.90
20481;DHT22;10399;50.754;3.366;2023-12-04T00:26:23;4.50;99.90
20481;DHT22;10399;50.754;3.366;2023-12-04T00:28:51;4.50;99.90
20481;DHT22;10399;50.754;3.366;2023-12-04T00:31:18;4.40;99.90
20481;DHT22;10399;50.754;3.366;2023-12-04T00:33:45;4.30;99.90
20481;DHT22;10399;50.754;3.366;2023-12-04T00:36:12;4.20;99.90
20481;DHT22;10399;50.754;3.366;2023-12-04T00:38:40;4.30;99.90
20481;DHT22;10399;50.754;3.366;2023-12-04T00:41:07;4.20;99.90
20481;DHT22;10399;50.754;3.366;2023-12-04T00:43:35;4.30;99.90
20481;DHT22;10399;50.754;3.366;2023-12-04T00:46:02;4.40;99.90
20481;DHT22;10399;50.754;3.366;2023-12-04T00:48:29;4.30;99.90
20481;DHT22;10399;50.754;3.366;2023-12-04T00:50:57;4.20;99.90
20481;DHT22;10399;50.754;3.366;2023-12-04T00:53:25;4.20;99.90
20481;DHT22;10399;50.754;3.366;2023-12-04T00:55:53;4.30;99.90
20481;DHT22;10399;50.754;3.366;2023-12-04T00:58:20;4.20;99.90
20481;DHT22;10399;50.754;3.366;2023-12-04T01:03:36;4.00;99.90
20481;DHT22;10399;50.754;3.366;2023-12-04T01:06:04;4.00;99.90
20481;DHT22;10399;50.754;3.366;2023-12-04T01:08:31;4.00;99.90
20481;DHT22;10399;50.754;3.366;2023-12-04T01:10:58;4.00;99.90
20481;DHT22;10399;50.754;3.366;2023-12-04T01:13:25;4.00;99.90
20481;DHT22;10399;50.754;3.366;2023-12-04T01:15:52;4.00;99.90
20481;DHT22;10399;50.754;3.366;2023-12-04T01:18:19;4.10;99.90
20481;DHT22;10399;50.754;3.366;2023-12-04T01:20:47;4.00;99.90
20481;DHT22;10399;50.754;3.366;2023-12-04T01:23:14;3.90;99.90
20481;DHT22;10399;50.754;3.366;2023-12-04T01:25:41;3.90;99.90
20481;DHT22;10399;50.754;3.366;2023-12-04T01:28:08;3.90;99.90
20481;DHT22;10399;50.754;3.366;2023-12-04T01:30:36;4.00;99.90
20481;DHT22;10399;50.754;3.366;2023-12-04T01:33:03;3.90;99.90
20481;DHT22;10399;50.754;3.366;2023-12-04T01:35:30;3.90;99.90
20481;DHT22;10399;50.754;3.366;2023-12-04T01:37:57;3.90;99.90
20481;DHT22;10399;50.754;3.366;2023-12-04T01:40:25;3.90;99.90
20481;DHT22;10399;50.754;3.366;2023-12-04T01:42:53;3.90;99.90
20481;DHT22;10399;50.754;3.366;2023-12-04T01:45:20;4.00;99.90
20481;DHT22;10399;50.754;3.366;2023-12-04T01:47:47;4.10;99.90
20481;DHT22;10399;50.754;3.366;2023-12-04T01:50:16;4.00;99.90
20481;DHT22;10399;50.754;3.366;2023-12-04T01:52:43;4.10;99.90
20481;DHT22;10399;50.754;3.366;2023-12-04T01:55:11;4.20;99.90
20481;DHT22;10399;50.754;3.366;2023-12-04T01:57:38;4.10;99.90
20481;DHT22;10399;50.754;3.366;2023-12-04T02:00:05;4.10;99.90
20481;DHT22;10399;50.754;3.366;2023-12-04T02:02:39;4.00;99.90
20481;DHT22;10399;50.754;3.366;2023-12-04T02:05:08;4.00;99.90
20481;DHT22;10399;50.754;3.366;2023-12-04T02:07:35;3.90;99.90
20481;DHT22;10399;50.754;3.366;2023-12-04T02:10:04;3.90;99.90
20481;DHT22;10399;50.754;3.366;2023-12-04T02:12:32;4.00;99.90
20481;DHT22;10399;50.754;3.366;2023-12-04T02:14:59;4.10;99.90
20481;DHT22;10399;50.754;3.366;2023-12-04T02:17:26;3.90;99.90
20481;DHT22;10399;50.754;3.366;2023-12-04T02:19:54;3.90;99.90
20481;DHT22;10399;50.754;3.366;2023-12-04T02:22:21;3.90;99.90
20481;DHT22;10399;50.754;3.366;2023-12-04T02:24:48;4.00;99.90
20481;DHT22;10399;50.754;3.366;2023-12-04T02:27:25;3.90;99.90
20481;DHT22;10399;50.754;3.366;2023-12-04T02:29:58;3.90;99.90
20481;DHT22;10399;50.754;3.366;2023-12-04T02:32:30;3.90;99.90
20481;DHT22;10399;50.754;3.366;2023-12-04T02:34:59;3.90;99.90
20481;DHT22;10399;50.754;3.366;2023-12-04T02:37:29;3.90;99.90
20481;DHT22;10399;50.754;3.366;2023-12-04T02:39:58;3.80;99.90
20481;DHT22;10399;50.754;3.366;2023-12-04T02:42:25;3.90;99.90
20481;DHT22;10399;50.754;3.366;2023-12-04T02:44:53;4.00;99.90
20481;DHT22;10399;50.754;3.366;2023-12-04T02:47:20;4.10;99.90
20481;DHT22;10399;50.754;3.366;2023-12-04T02:49:47;4.00;99.90
20481;DHT22;10399;50.754;3.366;2023-12-04T02:52:14;4.10;99.90
20481;DHT22;10399;50.754;3.366;2023-12-04T02:54:41;4.00;99.90
20481;DHT22;10399;50.754;3.366;2023-12-04T02:57:08;4.20;99.90
20481;DHT22;10399;50.754;3.366;2023-12-04T02:59:35;4.10;99.90
20481;DHT22;10399;50.754;3.366;2023-12-04T03:02:02;4.20;99.90
20481;DHT22;10399;50.754;3.366;2023-12-04T03:04:30;4.00;99.90
20481;DHT22;10399;50.754;3.366;2023-12-04T03:06:58;4.00;99.90
20481;DHT22;10399;50.754;3.366;2023-12-04T03:09:25;4.10;99.90
20481;DHT22;10399;50.754;3.366;2023-12-04T03:12:12;4.20;99.90
20481;DHT22;10399;50.754;3.366;2023-12-04T03:14:39;4.30;99.90
20481;DHT22;10399;50.754;3.366;2023-12-04T03:17:07;4.40;99.90
20481;DHT22;10399;50.754;3.366;2023-12-04T03:19:33;4.30;99.90
20481;DHT22;10399;50.754;3.366;2023-12-04T03:22:02;4.50;99.90
20481;DHT22;10399;50.754;3.366;2023-12-04T03:24:29;4.60;99.90
20481;DHT22;10399;50.754;3.366;2023-12-04T03:26:56;4.80;99.90
20481;DHT22;10399;50.754;3.366;2023-12-04T03:29:24;4.80;99.90
20481;DHT22;10399;50.754;3.366;2023-12-04T03:31:51;4.70;99.90
20481;DHT22;10399;50.754;3.366;2023-12-04T03:34:18;4.80;99.90
20481;DHT22;10399;50.754;3.366;2023-12-04T03:36:46;4.90;99.90
20481;DHT22;10399;50.754;3.366;2023-12-04T03:39:13;4.90;99.90
20481;DHT22;10399;50.754;3.366;2023-12-04T03:41:40;4.90;99.90
20481;DHT22;10399;50.754;3.366;2023-12-04T03:44:07;5.10;99.90
20481;DHT22;10399;50.754;3.366;2023-12-04T03:46:34;5.00;99.90
20481;DHT22;10399;50.754;3.366;2023-12-04T03:49:02;4.90;99.90
20481;DHT22;10399;50.754;3.366;2023-12-04T03:51:31;4.80;99.90
20481;DHT22;10399;50.754;3.366;2023-12-04T03:53:58;4.80;99.90
20481;DHT22;10399;50.754;3.366;2023-12-04T03:56:26;5.00;99.90
20481;DHT22;10399;50.754;3.366;2023-12-04T03:58:53;5.00;99.90
20481;DHT22;10399;50.754;3.366;2023-12-04T04:01:20;4.90;99.90
20481;DHT22;10399;50.754;3.366;2023-12-04T04:03:47;5.00;99.90
20481;DHT22;10399;50.754;3.366;2023-12-04T04:06:14;5.00;99.90
20481;DHT22;10399;50.754;3.366;2023-12-04T04:08:42;4.90;99.90
20481;DHT22;10399;50.754;3.366;2023-12-04T04:11:09;5.00;99.90
20481;DHT22;10399;50.754;3.366;2023-12-04T04:13:36;5.00;99.90
20481;DHT22;10399;50.754;3.366;2023-12-04T04:16:04;4.90;99.90
20481;DHT22;10399;50.754;3.366;2023-12-04T04:18:31;4.90;99.90
20481;DHT22;10399;50.754;3.366;2023-12-04T04:20:58;4.90;99.90
20481;DHT22;10399;50.754;3.366;2023-12-04T04:23:25;4.90;99.90
20481;DHT22;10399;50.754;3.366;2023-12-04T04:25:53;4.90;99.90
20481;DHT22;10399;50.754;3.366;2023-12-04T04:28:20;4.80;99.90
20481;DHT22;10399;50.754;3.366;2023-12-04T04:30:47;4.90;99.90
20481;DHT22;10399;50.754;3.366;2023-12-04T04:33:15;4.90;99.90
20481;DHT22;10399;50.754;3.366;2023-12-04T04:35:44;5.10;99.90
20481;DHT22;10399;50.754;3.366;2023-12-04T04:38:11;4.90;99.90
20481;DHT22;10399;50.754;3.366;2023-12-04T04:40:37;4.80;99.90
20481;DHT22;10399;50.754;3.366;2023-12-04T04:43:10;4.80;99.90
20481;DHT22;10399;50.754;3.366;2023-12-04T04:45:38;4.80;99.90
20481;DHT22;10399;50.754;3.366;2023-12-04T04:48:05;4.90;99.90
20481;DHT22;10399;50.754;3.366;2023-12-04T04:50:32;4.80;99.90
20481;DHT22;10399;50.754;3.366;2023-12-04T04:53:00;4.80;99.90
20481;DHT22;10399;50.754;3.366;2023-12-04T04:55:27;4.70;99.90
20481;DHT22;10399;50.754;3.366;2023-12-04T04:58:15;4.80;99.90
20481;DHT22;10399;50.754;3.366;2023-12-04T05:00:43;4.80;99.90
20481;DHT22;10399;50.754;3.366;2023-12-04T05:03:10;4.90;99.90
20481;DHT22;10399;50.754;3.366;2023-12-04T05:05:37;4.80;99.90
20481;DHT22;10399;50.754;3.366;2023-12-04T05:08:05;4.80;99.90
20481;DHT22;10399;50.754;3.366;2023-12-04T05:10:32;4.90;99.90
20481;DHT22;10399;50.754;3.366;2023-12-04T05:12:59;5.10;99.90
20481;DHT22;10399;50.754;3.366;2023-12-04T05:15:26;4.90;99.90
20481;DHT22;10399;50.754;3.366;2023-12-04T05:17:53;4.80;99.90
20481;DHT22;10399;50.754;3.366;2023-12-04T05:20:20;4.90;99.90
20481;DHT22;10399;50.754;3.366;2023-12-04T05:22:47;5.00;99.90
20481;DHT22;10399;50.754;3.366;2023-12-04T05:25:15;4.80;99.90
20481;DHT22;10399;50.754;3.366;2023-12-04T05:27:42;4.80;99.90
20481;DHT22;10399;50.754;3.366;2023-12-04T05:30:10;4.70;99.90
20481;DHT22;10399;50.754;3.366;2023-12-04T05:32:37;4.70;99.90
20481;DHT22;10399;50.754;3.366;2023-12-04T05:35:05;4.70;99.90
20481;DHT22;10399;50.754;3.366;2023-12-04T05:37:32;4.70;99.90
20481;DHT22;10399;50.754;3.366;2023-12-04T05:39:59;4.80;99.90
20481;DHT22;10399;50.754;3.366;2023-12-04T05:42:27;4.70;99.90
20481;DHT22;10399;50.754;3.366;2023-12-04T05:44:55;4.70;99.90
20481;DHT22;10399;50.754;3.366;2023-12-04T05:47:24;4.70;99.90
20481;DHT22;10399;50.754;3.366;2023-12-04T05:49:51;4.60;99.90
20481;DHT22;10399;50.754;3.366;2023-12-04T05:52:18;4.70;99.90
20481;DHT22;10399;50.754;3.366;2023-12-04T05:54:46;4.70;99.90
20481;DHT22;10399;50.754;3.366;2023-12-04T05:57:13;4.80;99.90
20481;DHT22;10399;50.754;3.366;2023-12-04T05:59:40;4.70;99.90
20481;DHT22;10399;50.754;3.366;2023-12-04T06:02:08;4.60;99.90
20481;DHT22;10399;50.754;3.366;2023-12-04T06:04:35;4.50;99.90
20481;DHT22;10399;50.754;3.366;2023-12-04T06:07:03;4.40;99.90
20481;DHT22;10399;50.754;3.366;2023-12-04T06:09:30;4.60;99.90
20481;DHT22;10399;50.754;3.366;2023-12-04T06:11:57;4.70;99.90
20481;DHT22;10399;50.754;3.366;2023-12-04T06:14:24;4.70;99.90
20481;DHT22;10399;50.754;3.366;2023-12-04T06:16:52;4.80;99.90
20481;DHT22;10399;50.754;3.366;2023-12-04T06:19:19;4.50;99.90
20481;DHT22;10399;50.754;3.366;2023-12-04T06:21:46;4.40;99.90
20481;DHT22;10399;50.754;3.366;2023-12-04T06:24:13;4.50;99.90
20481;DHT22;10399;50.754;3.366;2023-12-04T06:26:42;4.50;99.90
20481;DHT22;10399;50.754;3.366;2023-12-04T06:29:12;4.50;99.90
20481;DHT22;10399;50.754;3.366;2023-12-04T06:31:39;4.50;99.90
20481;DHT22;10399;50.754;3.366;2023-12-04T06:34:06;4.50;99.90
20481;DHT22;10399;50.754;3.366;2023-12-04T06:36:37;4.40;99.90
20481;DHT22;10399;50.754;3.366;2023-12-04T06:39:12;4.50;99.90
20481;DHT22;10399;50.754;3.366;2023-12-04T06:41:40;4.50;99.90
20481;DHT22;10399;50.754;3.366;2023-12-04T06:44:08;4.50;99.90
20481;DHT22;10399;50.754;3.366;2023-12-04T06:46:39;4.40;99.90
20481;DHT22;10399;50.754;3.366;2023-12-04T06:49:09;4.50;99.90
20481;DHT22;10399;50.754;3.366;2023-12-04T06:51:39;4.30;99.90
20481;DHT22;10399;50.754;3.366;2023-12-04T06:54:07;4.30;99.90
20481;DHT22;10399;50.754;3.366;2023-12-04T06:56:34;4.40;99.90
20481;DHT22;10399;50.754;3.366;2023-12-04T06:59:01;4.30;99.90
20481;DHT22;10399;50.754;3.366;2023-12-04T07:01:28;4.20;99.90
20481;DHT22;10399;50.754;3.366;2023-12-04T07:03:55;4.30;99.90
20481;DHT22;10399;50.754;3.366;2023-12-04T07:06:23;4.30;99.90
20481;DHT22;10399;50.754;3.366;2023-12-04T07:08:50;4.10;99.90
20481;DHT22;10399;50.754;3.366;2023-12-04T07:11:18;4.10;99.90
20481;DHT22;10399;50.754;3.366;2023-12-04T07:13:45;4.10;99.90
20481;DHT22;10399;50.754;3.366;2023-12-04T07:16:12;4.10;99.90
20481;DHT22;10399;50.754;3.366;2023-12-04T07:18:39;4.00;99.90
20481;DHT22;10399;50.754;3.366;2023-12-04T07:21:07;4.10;99.90
20481;DHT22;10399;50.754;3.366;2023-12-04T07:23:34;4.20;99.90
20481;DHT22;10399;50.754;3.366;2023-12-04T07:26:01;4.20;99.90
20481;DHT22;10399;50.754;3.366;2023-12-04T07:28:28;4.40;99.90
20481;DHT22;10399;50.754;3.366;2023-12-04T07:30:56;4.30;99.90
20481;DHT22;10399;50.754;3.366;2023-12-04T07:33:23;4.30;99.90
20481;DHT22;10399;50.754;3.366;2023-12-04T07:35:50;4.30;99.90
20481;DHT22;10399;50.754;3.366;2023-12-04T07:38:18;4.40;99.90
20481;DHT22;10399;50.754;3.366;2023-12-04T07:40:46;4.20;99.90
20481;DHT22;10399;50.754;3.366;2023-12-04T07:43:13;4.30;99.90
20481;DHT22;10399;50.754;3.366;2023-12-04T07:45:44;4.30;99.90
20481;DHT22;10399;50.754;3.366;2023-12-04T07:48:12;4.40;99.90
20481;DHT22;10399;50.754;3.366;2023-12-04T07:50:39;4.30;99.90
20481;DHT22;10399;50.754;3.366;2023-12-04T07:53:07;4.30;99.90
20481;DHT22;10399;50.754;3.366;2023-12-04T07:55:36;4.20;99.90
20481;DHT22;10399;50.754;3.366;2023-12-04T07:58:03;4.00;99.90
20481;DHT22;10399;50.754;3.366;2023-12-04T08:00:31;4.10;99.90
20481;DHT22;10399;50.754;3.366;2023-12-04T08:02:58;4.10;99.90
20481;DHT22;10399;50.754;3.366;2023-12-04T08:05:24;4.20;99.90
20481;DHT22;10399;50.754;3.366;2023-12-04T08:07:55;4.00;99.90
20481;DHT22;10399;50.754;3.366;2023-12-04T08:10:22;4.20;99.90
20481;DHT22;10399;50.754;3.366;2023-12-04T08:12:49;4.30;99.90
20481;DHT22;10399;50.754;3.366;2023-12-04T08:15:17;4.20;99.90
20481;DHT22;10399;50.754;3.366;2023-12-04T08:17:44;4.10;99.90
20481;DHT22;10399;50.754;3.366;2023-12-04T08:20:11;4.20;99.90
20481;DHT22;10399;50.754;3.366;2023-12-04T08:22:50;4.20;99.90
20481;DHT22;10399;50.754;3.366;2023-12-04T08:25:17;4.20;99.90
20481;DHT22;10399;50.754;3.366;2023-12-04T08:27:44;4.20;99.90
20481;DHT22;10399;50.754;3.366;2023-12-04T08:30:12;4.30;99.90
20481;DHT22;10399;50.754;3.366;2023-12-04T08:32:39;4.40;99.90
20481;DHT22;10399;50.754;3.366;2023-12-04T08:35:07;4.30;99.90
20481;DHT22;10399;50.754;3.366;2023-12-04T08:37:34;4.30;99.90
20481;DHT22;10399;50.754;3.366;2023-12-04T08:40:01;4.20;99.90
20481;DHT22;10399;50.754;3.366;2023-12-04T08:42:30;4.20;99.90
20481;DHT22;10399;50.754;3.366;2023-12-04T08:44:57;4.40;99.90
20481;DHT22;10399;50.754;3.366;2023-12-04T08:47:25;4.30;99.90
20481;DHT22;10399;50.754;3.366;2023-12-04T08:49:52;4.30;99.90
20481;DHT22;10399;50.754;3.366;2023-12-04T08:52:19;4.40;99.90
20481;DHT22;10399;50.754;3.366;2023-12-04T08:54:46;4.40;99.90
20481;DHT22;10399;50.754;3.366;2023-12-04T08:57:14;4.30;99.90
20481;DHT22;10399;50.754;3.366;2023-12-04T08:59:41;4.40;99.90
20481;DHT22;10399;50.754;3.366;2023-12-04T09:02:11;4.40;99.90
20481;DHT22;10399;50.754;3.366;2023-12-04T09:04:40;4.40;99.90
20481;DHT22;10399;50.754;3.366;2023-12-04T09:07:08;4.30;99.90
20481;DHT22;10399;50.754;3.366;2023-12-04T09:09:38;4.40;99.90
20481;DHT22;10399;50.754;3.366;2023-12-04T09:12:06;4.50;99.90
20481;DHT22;10399;50.754;3.366;2023-12-04T09:14:34;4.40;99.90
20481;DHT22;10399;50.754;3.366;2023-12-04T09:17:02;4.40;99.90
20481;DHT22;10399;50.754;3.366;2023-12-04T09:19:30;4.60;99.90
20481;DHT22;10399;50.754;3.366;2023-12-04T09:21:58;4.50;99.90
20481;DHT22;10399;50.754;3.366;2023-12-04T09:24:38;4.40;99.90
20481;DHT22;10399;50.754;3.366;2023-12-04T09:27:05;4.50;99.90
20481;DHT22;10399;50.754;3.366;2023-12-04T09:29:36;4.40;99.90
20481;DHT22;10399;50.754;3.366;2023-12-04T09:32:02;4.50;99.90
20481;DHT22;10399;50.754;3.366;2023-12-04T09:34:30;4.50;99.90
20481;DHT22;10399;50.754;3.366;2023-12-04T09:36:57;4.50;99.90
20481;DHT22;10399;50.754;3.366;2023-12-04T09:39:36;4.40;99.90
20481;DHT22;10399;50.754;3.366;2023-12-04T09:42:03;4.30;99.90
20481;DHT22;10399;50.754;3.366;2023-12-04T09:44:31;4.40;99.90
20481;DHT22;10399;50.754;3.366;2023-12-04T09:46:59;4.40;99.90
20481;DHT22;10399;50.754;3.366;2023-12-04T09:49:29;4.50;99.90
20481;DHT22;10399;50.754;3.366;2023-12-04T09:51:58;4.70;99.90
20481;DHT22;10399;50.754;3.366;2023-12-04T09:54:26;4.60;99.90
20481;DHT22;10399;50.754;3.366;2023-12-04T09:56:54;4.60;99.90
20481;DHT22;10399;50.754;3.366;2023-12-04T09:59:24;4.60;99.90
20481;DHT22;10399;50.754;3.366;2023-12-04T10:01:54;4.50;99.90
20481;DHT22;10399;50.754;3.366;2023-12-04T10:04:21;4.60;99.90
20481;DHT22;10399;50.754;3.366;2023-12-04T10:06:52;4.60;99.90
20481;DHT22;10399;50.754;3.366;2023-12-04T10:09:20;4.40;99.90
20481;DHT22;10399;50.754;3.366;2023-12-04T10:11:52;4.60;99.90
20481;DHT22;10399;50.754;3.366;2023-12-04T10:14:21;4.50;99.90
20481;DHT22;10399;50.754;3.366;2023-12-04T10:16:48;4.40;99.90
20481;DHT22;10399;50.754;3.366;2023-12-04T10:19:17;4.40;99.90
20481;DHT22;10399;50.754;3.366;2023-12-04T10:21:46;4.40;99.90
20481;DHT22;10399;50.754;3.366;2023-12-04T10:24:37;4.40;99.90
20481;DHT22;10399;50.754;3.366;2023-12-04T10:27:06;4.50;99.90
20481;DHT22;10399;50.754;3.366;2023-12-04T10:29:42;4.60;99.90
20481;DHT22;10399;50.754;3.366;2023-12-04T10:32:10;4.60;99.90
20481;DHT22;10399;50.754;3.366;2023-12-04T10:34:38;4.40;99.90
20481;DHT22;10399;50.754;3.366;2023-12-04T10:37:05;4.50;99.90
20481;DHT22;10399;50.754;3.366;2023-12-04T10:39:51;4.50;99.90
20481;DHT22;10399;50.754;3.366;2023-12-04T10:42:29;4.50;99.90
20481;DHT22;10399;50.754;3.366;2023-12-04T10:45:00;4.40;99.90
20481;DHT22;10399;50.754;3.366;2023-12-04T10:47:29;4.50;99.90
20481;DHT22;10399;50.754;3.366;2023-12-04T10:49:59;4.60;99.90
20481;DHT22;10399;50.754;3.366;2023-12-04T10:52:28;4.60;99.90
20481;DHT22;10399;50.754;3.366;2023-12-04T10:54:57;4.70;99.90
20481;DHT22;10399;50.754;3.366;2023-12-04T10:57:27;4.80;99.90
20481;DHT22;10399;50.754;3.366;2023-12-04T10:59:57;4.70;99.90
20481;DHT22;10399;50.754;3.366;2023-12-04T11:02:26;4.80;99.90
20481;DHT22;10399;50.754;3.366;2023-12-04T11:05:09;4.80;99.90
20481;DHT22;10399;50.754;3.366;2023-12-04T11:07:48;4.90;99.90
20481;DHT22;10399;50.754;3.366;2023-12-04T11:10:56;4.80;99.90
20481;DHT22;10399;50.754;3.366;2023-12-04T11:13:28;4.80;99.90
20481;DHT22;10399;50.754;3.366;2023-12-04T11:16:01;4.80;99.90
20481;DHT22;10399;50.754;3.366;2023-12-04T11:18:32;4.90;99.90
20481;DHT22;10399;50.754;3.366;2023-12-04T11:21:07;4.90;99.90
20481;DHT22;10399;50.754;3.366;2023-12-04T11:23:35;4.80;99.90
20481;DHT22;10399;50.754;3.366;2023-12-04T11:26:03;4.90;99.90
20481;DHT22;10399;50.754;3.366;2023-12-04T11:28:32;5.00;99.90
20481;DHT22;10399;50.754;3.366;2023-12-04T11:31:00;4.90;99.90
20481;DHT22;10399;50.754;3.366;2023-12-04T11:33:28;5.00;99.90
20481;DHT22;10399;50.754;3.366;2023-12-04T11:36:09;5.10;99.90
20481;DHT22;10399;50.754;3.366;2023-12-04T11:38:45;5.10;99.90
20481;DHT22;10399;50.754;3.366;2023-12-04T11:43:51;5.20;99.90
20481;DHT22;10399;50.754;3.366;2023-12-04T11:46:20;5.30;99.90
20481;DHT22;10399;50.754;3.366;2023-12-04T11:48:54;5.30;99.90
20481;DHT22;10399;50.754;3.366;2023-12-04T11:54:12;5.30;99.90
20481;DHT22;10399;50.754;3.366;2023-12-04T11:56:55;5.30;99.90
20481;DHT22;10399;50.754;3.366;2023-12-04T11:59:23;5.40;99.90
20481;DHT22;10399;50.754;3.366;2023-12-04T12:01:50;5.50;99.90
20481;DHT22;10399;50.754;3.366;2023-12-04T12:04:19;5.60;99.90
20481;DHT22;10399;50.754;3.366;2023-12-04T12:06:47;5.60;99.90
20481;DHT22;10399;50.754;3.366;2023-12-04T12:09:14;5.60;99.90
20481;DHT22;10399;50.754;3.366;2023-12-04T12:11:42;5.50;99.90
20481;DHT22;10399;50.754;3.366;2023-12-04T12:14:10;5.40;99.90
20481;DHT22;10399;50.754;3.366;2023-12-04T12:16:37;5.40;99.90
20481;DHT22;10399;50.754;3.366;2023-12-04T12:19:04;5.60;99.90
20481;DHT22;10399;50.754;3.366;2023-12-04T12:21:32;5.50;99.90
20481;DHT22;10399;50.754;3.366;2023-12-04T12:24:00;5.60;99.90
20481;DHT22;10399;50.754;3.366;2023-12-04T12:26:28;5.60;99.90
20481;DHT22;10399;50.754;3.366;2023-12-04T12:28:56;5.60;99.90
20481;DHT22;10399;50.754;3.366;2023-12-04T12:31:23;5.70;99.90
20481;DHT22;10399;50.754;3.366;2023-12-04T12:33:51;5.70;99.90
20481;DHT22;10399;50.754;3.366;2023-12-04T12:36:19;5.80;99.90
20481;DHT22;10399;50.754;3.366;2023-12-04T12:38:46;5.80;99.90
20481;DHT22;10399;50.754;3.366;2023-12-04T12:41:17;5.70;99.90
20481;DHT22;10399;50.754;3.366;2023-12-04T12:43:44;5.80;99.90
20481;DHT22;10399;50.754;3.366;2023-12-04T12:46:12;5.70;99.90
20481;DHT22;10399;50.754;3.366;2023-12-04T12:48:39;5.60;99.90
20481;DHT22;10399;50.754;3.366;2023-12-04T12:51:07;5.60;99.90
20481;DHT22;10399;50.754;3.366;2023-12-04T12:53:35;5.70;99.90
20481;DHT22;10399;50.754;3.366;2023-12-04T12:56:02;5.70;99.90
20481;DHT22;10399;50.754;3.366;2023-12-04T12:58:29;5.70;99.90
20481;DHT22;10399;50.754;3.366;2023-12-04T13:00:57;5.60;99.90
20481;DHT22;10399;50.754;3.366;2023-12-04T13:03:24;5.70;99.90
20481;DHT22;10399;50.754;3.366;2023-12-04T13:05:52;5.80;99.90
20481;DHT22;10399;50.754;3.366;2023-12-04T13:08:19;5.80;99.90
20481;DHT22;10399;50.754;3.366;2023-12-04T13:10:46;5.80;99.90
20481;DHT22;10399;50.754;3.366;2023-12-04T13:13:14;5.80;99.90
20481;DHT22;10399;50.754;3.366;2023-12-04T13:15:42;5.90;99.90
20481;DHT22;10399;50.754;3.366;2023-12-04T13:18:09;5.80;99.90
20481;DHT22;10399;50.754;3.366;2023-12-04T13:20:37;5.80;99.90
20481;DHT22;10399;50.754;3.366;2023-12-04T13:23:04;5.90;99.90
20481;DHT22;10399;50.754;3.366;2023-12-04T13:25:31;6.10;99.90
20481;DHT22;10399;50.754;3.366;2023-12-04T13:27:59;6.00;99.90
20481;DHT22;10399;50.754;3.366;2023-12-04T13:30:26;5.90;99.90
20481;DHT22;10399;50.754;3.366;2023-12-04T13:32:53;5.90;99.90
20481;DHT22;10399;50.754;3.366;2023-12-04T13:35:20;6.00;99.90
20481;DHT22;10399;50.754;3.366;2023-12-04T13:37:47;6.10;99.90
20481;DHT22;10399;50.754;3.366;2023-12-04T13:40:23;5.90;99.90
20481;DHT22;10399;50.754;3.366;2023-12-04T13:42:53;6.20;99.90
20481;DHT22;10399;50.754;3.366;2023-12-04T13:45:39;6.10;99.90
20481;DHT22;10399;50.754;3.366;2023-12-04T13:48:06;6.20;99.90
20481;DHT22;10399;50.754;3.366;2023-12-04T13:50:34;6.20;99.90
20481;DHT22;10399;50.754;3.366;2023-12-04T13:53:01;6.00;99.90
20481;DHT22;10399;50.754;3.366;2023-12-04T13:55:28;6.00;99.90
20481;DHT22;10399;50.754;3.366;2023-12-04T13:58:31;6.00;99.90
20481;DHT22;10399;50.754;3.366;2023-12-04T14:01:11;6.20;99.90
20481;DHT22;10399;50.754;3.366;2023-12-04T14:03:45;6.20;99.90
20481;DHT22;10399;50.754;3.366;2023-12-04T14:06:13;6.30;99.90
20481;DHT22;10399;50.754;3.366;2023-12-04T14:08:42;6.30;99.90
20481;DHT22;10399;50.754;3.366;2023-12-04T14:11:11;6.20;99.90
20481;DHT22;10399;50.754;3.366;2023-12-04T14:13:39;6.00;99.90
20481;DHT22;10399;50.754;3.366;2023-12-04T14:16:08;6.10;99.90
20481;DHT22;10399;50.754;3.366;2023-12-04T14:18:35;6.30;99.90
20481;DHT22;10399;50.754;3.366;2023-12-04T14:21:02;6.30;99.90
20481;DHT22;10399;50.754;3.366;2023-12-04T14:23:30;6.10;99.90
20481;DHT22;10399;50.754;3.366;2023-12-04T14:25:57;6.10;99.90
20481;DHT22;10399;50.754;3.366;2023-12-04T14:28:24;6.20;99.90
20481;DHT22;10399;50.754;3.366;2023-12-04T14:30:58;6.30;99.90
20481;DHT22;10399;50.754;3.366;2023-12-04T14:33:26;6.40;99.90
20481;DHT22;10399;50.754;3.366;2023-12-04T14:35:53;6.30;99.90
20481;DHT22;10399;50.754;3.366;2023-12-04T14:38:21;6.30;99.90
20481;DHT22;10399;50.754;3.366;2023-12-04T14:40:49;6.20;99.90
20481;DHT22;10399;50.754;3.366;2023-12-04T14:43:17;6.30;99.90
20481;DHT22;10399;50.754;3.366;2023-12-04T14:45:44;6.20;99.90
20481;DHT22;10399;50.754;3.366;2023-12-04T14:48:11;6.30;99.90
20481;DHT22;10399;50.754;3.366;2023-12-04T14:50:39;6.30;99.90
20481;DHT22;10399;50.754;3.366;2023-12-04T14:53:06;6.10;99.90
20481;DHT22;10399;50.754;3.366;2023-12-04T14:55:43;6.20;99.90
20481;DHT22;10399;50.754;3.366;2023-12-04T14:58:31;6.20;99.90
20481;DHT22;10399;50.754;3.366;2023-12-04T15:01:11;6.20;99.90
20481;DHT22;10399;50.754;3.366;2023-12-04T15:03:39;6.20;99.90
20481;DHT22;10399;50.754;3.366;2023-12-04T15:06:32;6.40;99.90
20481;DHT22;10399;50.754;3.366;2023-12-04T15:09:20;6.40;99.90
20481;DHT22;10399;50.754;3.366;2023-12-04T15:12:06;6.50;99.90
20481;DHT22;10399;50.754;3.366;2023-12-04T15:14:48;6.60;99.90
20481;DHT22;10399;50.754;3.366;2023-12-04T15:17:38;6.50;99.90
20481;DHT22;10399;50.754;3.366;2023-12-04T15:20:17;6.40;99.90
20481;DHT22;10399;50.754;3.366;2023-12-04T15:22:59;6.40;99.90
20481;DHT22;10399;50.754;3.366;2023-12-04T15:25:26;6.40;99.90
20481;DHT22;10399;50.754;3.366;2023-12-04T15:27:54;6.40;99.90
20481;DHT22;10399;50.754;3.366;2023-12-04T15:30:22;6.40;99.90
20481;DHT22;10399;50.754;3.366;2023-12-04T15:32:49;6.40;99.90
20481;DHT22;10399;50.754;3.366;2023-12-04T15:35:16;6.40;99.90
20481;DHT22;10399;50.754;3.366;2023-12-04T15:37:43;6.50;99.90
20481;DHT22;10399;50.754;3.366;2023-12-04T15:40:10;6.60;99.90
20481;DHT22;10399;50.754;3.366;2023-12-04T15:42:38;6.60;99.90
20481;DHT22;10399;50.754;3.366;2023-12-04T15:45:06;6.60;99.90
20481;DHT22;10399;50.754;3.366;2023-12-04T15:47:33;6.70;99.90
20481;DHT22;10399;50.754;3.366;2023-12-04T15:50:01;6.70;99.90
20481;DHT22;10399;50.754;3.366;2023-12-04T15:52:31;6.60;99.90
20481;DHT22;10399;50.754;3.366;2023-12-04T15:54:58;6.60;99.90
20481;DHT22;10399;50.754;3.366;2023-12-04T15:57:25;6.60;99.90
20481;DHT22;10399;50.754;3.366;2023-12-04T15:59:52;6.70;99.90
20481;DHT22;10399;50.754;3.366;2023-12-04T16:02:20;6.70;99.90
20481;DHT22;10399;50.754;3.366;2023-12-04T16:04:50;6.60;99.90